sensor_id;sensor_type;location;lat;lon;timestamp;pressure;altitude;pressure_sealevel;temperature;humidity
24962;BME280;12992;50.884;13.668;2023-03-04T00:01:17;97721.94;;;-0.94;100.00
24962;BME280;12992;50.884;13.668;2023-03-04T00:03:43;97715.28;;;-0.98;100.00
24962;BME280;12992;50.884;13.668;2023-03-04T00:06:08;97721.94;;;-0.94;100.00
24962;BME280;12992;50.884;13.668;2023-03-04T00:08:34;97716.59;;;-0.94;100.00
24962;BME280;12992;50.884;13.668;2023-03-04T00:10:59;97723.09;;;-0.88;100.00
24962;BME280;12992;50.884;13.668;2023-03-04T00:13:24;97734.47;;;-0.86;100.00
24962;BME280;12992;50.884;13.668;2023-03-04T00:15:50;97723.25;;;-0.90;100.00
24962;BME280;12992;50.884;13.668;2023-03-04T00:18:15;97732.25;;;-0.82;100.00
24962;BME280;12992;50.884;13.668;2023-03-04T00:20:41;97718.41;;;-0.86;100.00
24962;BME280;12992;50.884;13.668;2023-03-04T00:23:06;97720.91;;;-0.84;100.00
24962;BME280;12992;50.884;13.668;2023-03-04T00:25:31;97720.72;;;-0.83;100.00
24962;BME280;12992;50.884;13.668;2023-03-04T00:27:57;97715.38;;;-0.83;100.00
24962;BME280;12992;50.884;13.668;2023-03-04T00:30:23;97721.88;;;-0.77;100.00
24962;BME280;12992;50.884;13.668;2023-03-04T00:32:49;97703.19;;;-0.86;100.00
24962;BME280;12992;50.884;13.668;2023-03-04T00:35:14;97708.84;;;-0.80;100.00
24962;BME280;12992;50.884;13.668;2023-03-04T00:37:40;97714.88;;;-0.78;100.00
24962;BME280;12992;50.884;13.668;2023-03-04T00:40:05;97700.00;;;-0.81;100.00
24962;BME280;12992;50.884;13.668;2023-03-04T00:42:31;97700.16;;;-0.82;100.00
24962;BME280;12992;50.884;13.668;2023-03-04T00:44:57;97700.00;;;-0.81;100.00
24962;BME280;12992;50.884;13.668;2023-03-04T00:47:22;97706.66;;;-0.77;100.00
24962;BME280;12992;50.884;13.668;2023-03-04T00:49:47;97700.50;;;-0.77;100.00
24962;BME280;12992;50.884;13.668;2023-03-04T00:52:12;97694.66;;;-0.81;100.00
24962;BME280;12992;50.884;13.668;2023-03-04T00:54:38;97694.31;;;-0.78;100.00
24962;BME280;12992;50.884;13.668;2023-03-04T00:57:03;97708.81;;;-0.72;100.00
24962;BME280;12992;50.884;13.668;2023-03-04T00:59:28;97696.13;;;-0.70;100.00
24962;BME280;12992;50.884;13.668;2023-03-04T01:01:54;97696.94;;;-0.70;100.00
24962;BME280;12992;50.884;13.668;2023-03-04T01:04:19;97695.09;;;-0.69;100.00
24962;BME280;12992;50.884;13.668;2023-03-04T01:06:44;97690.09;;;-0.72;100.00
24962;BME280;12992;50.884;13.668;2023-03-04T01:09:10;97682.06;;;-0.72;100.00
24962;BME280;12992;50.884;13.668;2023-03-04T01:11:36;97686.72;;;-0.66;100.00
24962;BME280;12992;50.884;13.668;2023-03-04T01:14:01;97681.56;;;-0.68;100.00
24962;BME280;12992;50.884;13.668;2023-03-04T01:16:26;97680.34;;;-0.65;100.00
24962;BME280;12992;50.884;13.668;2023-03-04T01:18:52;97679.00;;;-0.61;100.00
24962;BME280;12992;50.884;13.668;2023-03-04T01:21:18;97671.03;;;-0.69;100.00
24962;BME280;12992;50.884;13.668;2023-03-04T01:23:43;97654.50;;;-0.73;100.00
24962;BME280;12992;50.884;13.668;2023-03-04T01:26:08;97670.31;;;-0.63;100.00
24962;BME280;12992;50.884;13.668;2023-03-04T01:28:34;97666.28;;;-0.59;100.00
24962;BME280;12992;50.884;13.668;2023-03-04T01:31:01;97668.78;;;-0.58;100.00
24962;BME280;12992;50.884;13.668;2023-03-04T01:33:26;97665.09;;;-0.57;100.00
24962;BME280;12992;50.884;13.668;2023-03-04T01:35:52;97669.75;;;-0.50;100.00
24962;BME280;12992;50.884;13.668;2023-03-04T01:38:17;97644.88;;;-0.59;100.00
24962;BME280;12992;50.884;13.668;2023-03-04T01:40:42;97646.91;;;-0.61;100.00
24962;BME280;12992;50.884;13.668;2023-03-04T01:43:14;97655.53;;;-0.51;100.00
24962;BME280;12992;50.884;13.668;2023-03-04T01:45:41;97640.84;;;-0.55;100.00
24962;BME280;12992;50.884;13.668;2023-03-04T01:48:09;97643.81;;;-0.50;100.00
24962;BME280;12992;50.884;13.668;2023-03-04T01:50:36;97645.47;;;-0.49;100.00
24962;BME280;12992;50.884;13.668;2023-03-04T01:53:02;97645.28;;;-0.47;100.00
24962;BME280;12992;50.884;13.668;2023-03-04T01:55:29;97646.44;;;-0.42;100.00
24962;BME280;12992;50.884;13.668;2023-03-04T01:57:54;97639.88;;;-0.39;100.00
24962;BME280;12992;50.884;13.668;2023-03-04T02:00:33;97632.88;;;-0.40;100.00
24962;BME280;12992;50.884;13.668;2023-03-04T02:03:05;97630.84;;;-0.38;100.00
24962;BME280;12992;50.884;13.668;2023-03-04T02:05:33;97617.28;;;-0.37;100.00
24962;BME280;12992;50.884;13.668;2023-03-04T02:08:00;97624.97;;;-0.34;100.00
24962;BME280;12992;50.884;13.668;2023-03-04T02:10:26;97610.91;;;-0.36;100.00
24962;BME280;12992;50.884;13.668;2023-03-04T02:12:52;97614.28;;;-0.34;100.00
24962;BME280;12992;50.884;13.668;2023-03-04T02:15:17;97618.59;;;-0.33;100.00
24962;BME280;12992;50.884;13.668;2023-03-04T02:17:43;97624.41;;;-0.29;100.00
24962;BME280;12992;50.884;13.668;2023-03-04T02:20:32;97607.91;;;-0.33;100.00
24962;BME280;12992;50.884;13.668;2023-03-04T02:23:08;97610.84;;;-0.28;100.00
24962;BME280;12992;50.884;13.668;2023-03-04T02:25:45;97616.88;;;-0.25;100.00
24962;BME280;12992;50.884;13.668;2023-03-04T02:28:12;97607.19;;;-0.26;100.00
24962;BME280;12992;50.884;13.668;2023-03-04T02:30:37;97598.31;;;-0.27;100.00
24962;BME280;12992;50.884;13.668;2023-03-04T02:33:03;97600.44;;;-0.22;100.00
24962;BME280;12992;50.884;13.668;2023-03-04T02:35:28;97604.78;;;-0.21;100.00
24962;BME280;12992;50.884;13.668;2023-03-04T02:37:54;97594.72;;;-0.19;100.00
24962;BME280;12992;50.884;13.668;2023-03-04T02:40:27;97591.03;;;-0.18;100.00
24962;BME280;12992;50.884;13.668;2023-03-04T02:42:53;97590.06;;;-0.17;100.00
24962;BME280;12992;50.884;13.668;2023-03-04T02:45:43;97583.00;;;-0.18;100.00
24962;BME280;12992;50.884;13.668;2023-03-04T02:48:10;97571.00;;;-0.22;100.00
24962;BME280;12992;50.884;13.668;2023-03-04T02:50:43;97585.69;;;-0.18;100.00
24962;BME280;12992;50.884;13.668;2023-03-04T02:53:09;97574.00;;;-0.17;100.00
24962;BME280;12992;50.884;13.668;2023-03-04T02:55:35;97582.03;;;-0.17;100.00
24962;BME280;12992;50.884;13.668;2023-03-04T02:58:00;97578.59;;;-0.11;100.00
24962;BME280;12992;50.884;13.668;2023-03-04T03:00:26;97578.41;;;-0.10;100.00
24962;BME280;12992;50.884;13.668;2023-03-04T03:02:52;97579.63;;;-0.12;100.00
24962;BME280;12992;50.884;13.668;2023-03-04T03:05:18;97574.91;;;-0.10;100.00
24962;BME280;12992;50.884;13.668;2023-03-04T03:07:43;97562.19;;;-0.08;100.00
24962;BME280;12992;50.884;13.668;2023-03-04T03:10:10;97556.34;;;-0.12;100.00
24962;BME280;12992;50.884;13.668;2023-03-04T03:12:36;97560.03;;;-0.13;100.00
24962;BME280;12992;50.884;13.668;2023-03-04T03:15:03;97544.16;;;-0.14;100.00
24962;BME280;12992;50.884;13.668;2023-03-04T03:17:28;97554.88;;;-0.14;100.00
24962;BME280;12992;50.884;13.668;2023-03-04T03:19:53;97552.31;;;-0.08;100.00
24962;BME280;12992;50.884;13.668;2023-03-04T03:22:19;97537.81;;;-0.13;100.00
24962;BME280;12992;50.884;13.668;2023-03-04T03:24:44;97534.09;;;-0.12;100.00
24962;BME280;12992;50.884;13.668;2023-03-04T03:27:09;97535.13;;;-0.13;100.00
24962;BME280;12992;50.884;13.668;2023-03-04T03:29:35;97549.34;;;-0.13;100.00
24962;BME280;12992;50.884;13.668;2023-03-04T03:32:00;97529.47;;;-0.18;100.00
24962;BME280;12992;50.884;13.668;2023-03-04T03:34:25;97534.09;;;-0.12;100.00
24962;BME280;12992;50.884;13.668;2023-03-04T03:36:51;97523.13;;;-0.17;100.00
24962;BME280;12992;50.884;13.668;2023-03-04T03:39:16;97532.00;;;-0.17;100.00
24962;BME280;12992;50.884;13.668;2023-03-04T03:41:41;97538.19;;;-0.16;100.00
24962;BME280;12992;50.884;13.668;2023-03-04T03:44:07;97539.19;;;-0.17;100.00
24962;BME280;12992;50.884;13.668;2023-03-04T03:46:32;97535.19;;;-0.21;100.00
24962;BME280;12992;50.884;13.668;2023-03-04T03:48:59;97523.56;;;-0.29;100.00
24962;BME280;12992;50.884;13.668;2023-03-04T03:51:24;97543.59;;;-0.24;100.00
24962;BME280;12992;50.884;13.668;2023-03-04T03:53:50;97546.28;;;-0.24;100.00
24962;BME280;12992;50.884;13.668;2023-03-04T03:56:15;97543.41;;;-0.23;100.00
24962;BME280;12992;50.884;13.668;2023-03-04T03:58:40;97539.28;;;-0.25;100.00
24962;BME280;12992;50.884;13.668;2023-03-04T04:01:06;97542.28;;;-0.29;100.00
24962;BME280;12992;50.884;13.668;2023-03-04T04:03:31;97541.75;;;-0.24;100.00
24962;BME280;12992;50.884;13.668;2023-03-04T04:05:56;97535.78;;;-0.26;100.00
24962;BME280;12992;50.884;13.668;2023-03-04T04:08:22;97526.78;;;-0.33;100.00
24962;BME280;12992;50.884;13.668;2023-03-04T04:10:47;97540.00;;;-0.32;100.00
24962;BME280;12992;50.884;13.668;2023-03-04T04:13:12;97535.66;;;-0.33;100.00
24962;BME280;12992;50.884;13.668;2023-03-04T04:15:38;97536.66;;;-0.34;100.00
24962;BME280;12992;50.884;13.668;2023-03-04T04:18:04;97535.34;;;-0.38;100.00
24962;BME280;12992;50.884;13.668;2023-03-04T04:20:30;97547.72;;;-0.37;100.00
24962;BME280;12992;50.884;13.668;2023-03-04T04:22:55;97539.41;;;-0.42;100.00
24962;BME280;12992;50.884;13.668;2023-03-04T04:25:21;97558.78;;;-0.40;100.00
24962;BME280;12992;50.884;13.668;2023-03-04T04:27:46;97553.44;;;-0.40;100.00
24962;BME280;12992;50.884;13.668;2023-03-04T04:30:11;97553.63;;;-0.41;100.00
24962;BME280;12992;50.884;13.668;2023-03-04T04:32:37;97554.72;;;-0.36;100.00
24962;BME280;12992;50.884;13.668;2023-03-04T04:35:02;97560.44;;;-0.39;100.00
24962;BME280;12992;50.884;13.668;2023-03-04T04:37:27;97559.09;;;-0.35;100.00
24962;BME280;12992;50.884;13.668;2023-03-04T04:39:53;97551.47;;;-0.46;100.00
24962;BME280;12992;50.884;13.668;2023-03-04T04:42:20;97549.75;;;-0.39;100.00
24962;BME280;12992;50.884;13.668;2023-03-04T04:44:45;97566.75;;;-0.32;100.00
24962;BME280;12992;50.884;13.668;2023-03-04T04:47:11;97554.38;;;-0.33;100.00
24962;BME280;12992;50.884;13.668;2023-03-04T04:49:36;97549.03;;;-0.33;100.00
24962;BME280;12992;50.884;13.668;2023-03-04T04:52:02;97553.66;;;-0.26;100.00
24962;BME280;12992;50.884;13.668;2023-03-04T04:54:27;97558.47;;;-0.22;100.00
24962;BME280;12992;50.884;13.668;2023-03-04T04:56:52;97561.44;;;-0.17;100.00
24962;BME280;12992;50.884;13.668;2023-03-04T04:59:18;97555.72;;;-0.14;100.00
24962;BME280;12992;50.884;13.668;2023-03-04T05:01:43;97557.38;;;-0.13;100.00
24962;BME280;12992;50.884;13.668;2023-03-04T05:04:08;97558.84;;;-0.10;100.00
24962;BME280;12992;50.884;13.668;2023-03-04T05:06:34;97558.50;;;-0.07;100.00
24962;BME280;12992;50.884;13.668;2023-03-04T05:08:59;97549.44;;;-0.06;100.00
24962;BME280;12992;50.884;13.668;2023-03-04T05:11:24;97556.28;;;-0.04;100.00
24962;BME280;12992;50.884;13.668;2023-03-04T05:13:50;97558.75;;;-0.02;100.00
24962;BME280;12992;50.884;13.668;2023-03-04T05:16:16;97555.75;;;0.01;100.00
24962;BME280;12992;50.884;13.668;2023-03-04T05:18:42;97559.06;;;0.03;100.00
24962;BME280;12992;50.884;13.668;2023-03-04T05:21:07;97559.88;;;0.04;100.00
24962;BME280;12992;50.884;13.668;2023-03-04T05:23:36;97560.34;;;0.07;100.00
24962;BME280;12992;50.884;13.668;2023-03-04T05:26:03;97568.03;;;0.10;100.00
24962;BME280;12992;50.884;13.668;2023-03-04T05:28:29;97567.19;;;0.10;100.00
24962;BME280;12992;50.884;13.668;2023-03-04T05:30:54;97560.44;;;0.14;100.00
24962;BME280;12992;50.884;13.668;2023-03-04T05:33:20;97563.94;;;0.14;100.00
24962;BME280;12992;50.884;13.668;2023-03-04T05:35:46;97562.94;;;0.15;100.00
24962;BME280;12992;50.884;13.668;2023-03-04T05:38:14;97554.91;;;0.15;100.00
24962;BME280;12992;50.884;13.668;2023-03-04T05:40:40;97556.94;;;0.13;100.00
24962;BME280;12992;50.884;13.668;2023-03-04T05:43:05;97559.22;;;0.16;100.00
24962;BME280;12992;50.884;13.668;2023-03-04T05:45:31;97548.34;;;0.18;100.00
24962;BME280;12992;50.884;13.668;2023-03-04T05:47:56;97549.19;;;0.18;100.00
24962;BME280;12992;50.884;13.668;2023-03-04T05:50:22;97548.16;;;0.19;100.00
24962;BME280;12992;50.884;13.668;2023-03-04T05:52:51;97552.50;;;0.20;100.00
24962;BME280;12992;50.884;13.668;2023-03-04T05:55:17;97556.00;;;0.21;100.00
24962;BME280;12992;50.884;13.668;2023-03-04T05:57:43;97555.81;;;0.22;100.00
24962;BME280;12992;50.884;13.668;2023-03-04T06:00:10;97556.47;;;0.24;100.00
24962;BME280;12992;50.884;13.668;2023-03-04T06:02:40;97553.97;;;0.23;100.00
24962;BME280;12992;50.884;13.668;2023-03-04T06:05:07;97560.81;;;0.25;100.00
24962;BME280;12992;50.884;13.668;2023-03-04T06:07:33;97556.13;;;0.27;100.00
24962;BME280;12992;50.884;13.668;2023-03-04T06:09:58;97568.00;;;0.40;100.00
24962;BME280;12992;50.884;13.668;2023-03-04T06:12:23;97551.66;;;0.35;100.00
24962;BME280;12992;50.884;13.668;2023-03-04T06:14:49;97563.69;;;0.39;100.00
24962;BME280;12992;50.884;13.668;2023-03-04T06:17:14;97556.28;;;0.41;100.00
24962;BME280;12992;50.884;13.668;2023-03-04T06:19:40;97547.13;;;0.35;100.00
24962;BME280;12992;50.884;13.668;2023-03-04T06:22:08;97554.25;;;0.43;100.00
24962;BME280;12992;50.884;13.668;2023-03-04T06:24:34;97559.25;;;0.46;100.00
24962;BME280;12992;50.884;13.668;2023-03-04T06:26:59;97548.16;;;0.49;100.00
24962;BME280;12992;50.884;13.668;2023-03-04T06:29:25;97550.81;;;0.49;100.00
24962;BME280;12992;50.884;13.668;2023-03-04T06:31:50;97550.81;;;0.49;100.00
24962;BME280;12992;50.884;13.668;2023-03-04T06:34:15;97545.03;;;0.45;100.00
24962;BME280;12992;50.884;13.668;2023-03-04T06:36:41;97550.91;;;0.55;100.00
24962;BME280;12992;50.884;13.668;2023-03-04T06:39:06;97548.78;;;0.51;100.00
24962;BME280;12992;50.884;13.668;2023-03-04T06:41:32;97560.03;;;0.61;100.00
24962;BME280;12992;50.884;13.668;2023-03-04T06:43:58;97550.34;;;0.60;100.00
24962;BME280;12992;50.884;13.668;2023-03-04T06:46:23;97541.94;;;0.63;100.00
24962;BME280;12992;50.884;13.668;2023-03-04T06:48:48;97534.25;;;0.60;100.00
24962;BME280;12992;50.884;13.668;2023-03-04T06:51:14;97540.09;;;0.64;100.00
24962;BME280;12992;50.884;13.668;2023-03-04T06:53:40;97540.72;;;0.66;100.00
24962;BME280;12992;50.884;13.668;2023-03-04T06:56:06;97547.19;;;0.71;100.00
24962;BME280;12992;50.884;13.668;2023-03-04T06:58:32;97535.81;;;0.69;100.00
24962;BME280;12992;50.884;13.668;2023-03-04T07:01:11;97542.28;;;0.75;100.00
24962;BME280;12992;50.884;13.668;2023-03-04T07:03:37;97539.78;;;0.73;100.00
24962;BME280;12992;50.884;13.668;2023-03-04T07:06:02;97548.75;;;0.80;100.00
24962;BME280;12992;50.884;13.668;2023-03-04T07:08:27;97550.13;;;0.76;100.00
24962;BME280;12992;50.884;13.668;2023-03-04T07:10:53;97538.56;;;0.76;100.00
24962;BME280;12992;50.884;13.668;2023-03-04T07:13:18;97547.72;;;0.81;100.00
24962;BME280;12992;50.884;13.668;2023-03-04T07:15:43;97544.84;;;0.83;100.00
24962;BME280;12992;50.884;13.668;2023-03-04T07:18:09;97543.19;;;0.82;100.00
24962;BME280;12992;50.884;13.668;2023-03-04T07:20:34;97544.38;;;0.79;100.00
24962;BME280;12992;50.884;13.668;2023-03-04T07:22:59;97558.69;;;0.87;100.00
24962;BME280;12992;50.884;13.668;2023-03-04T07:25:25;97560.00;;;0.91;100.00
24962;BME280;12992;50.884;13.668;2023-03-04T07:27:50;97543.28;;;0.89;100.00
24962;BME280;12992;50.884;13.668;2023-03-04T07:30:15;97541.59;;;0.88;100.00
24962;BME280;12992;50.884;13.668;2023-03-04T07:32:41;97542.25;;;0.90;100.00
24962;BME280;12992;50.884;13.668;2023-03-04T07:35:06;97547.03;;;0.94;100.00
24962;BME280;12992;50.884;13.668;2023-03-04T07:37:32;97551.56;;;0.94;100.00
24962;BME280;12992;50.884;13.668;2023-03-04T07:39:57;97552.88;;;0.98;100.00
24962;BME280;12992;50.884;13.668;2023-03-04T07:42:22;97544.16;;;0.96;100.00
24962;BME280;12992;50.884;13.668;2023-03-04T07:44:56;97547.31;;;0.99;100.00
24962;BME280;12992;50.884;13.668;2023-03-04T07:47:21;97542.97;;;0.98;100.00
24962;BME280;12992;50.884;13.668;2023-03-04T07:49:47;97547.50;;;0.98;100.00
24962;BME280;12992;50.884;13.668;2023-03-04T07:52:12;97546.69;;;0.97;100.00
24962;BME280;12992;50.884;13.668;2023-03-04T07:54:38;97565.97;;;1.07;100.00
24962;BME280;12992;50.884;13.668;2023-03-04T07:57:03;97554.56;;;1.05;100.00
24962;BME280;12992;50.884;13.668;2023-03-04T07:59:29;97556.69;;;1.10;100.00
24962;BME280;12992;50.884;13.668;2023-03-04T08:01:54;97563.34;;;1.14;100.00
24962;BME280;12992;50.884;13.668;2023-03-04T08:04:19;97554.28;;;1.15;100.00
24962;BME280;12992;50.884;13.668;2023-03-04T08:06:45;97554.84;;;1.10;100.00
24962;BME280;12992;50.884;13.668;2023-03-04T08:09:10;97536.63;;;1.06;100.00
24962;BME280;12992;50.884;13.668;2023-03-04T08:11:37;97547.19;;;1.07;100.00
24962;BME280;12992;50.884;13.668;2023-03-04T08:14:03;97549.28;;;1.12;100.00
24962;BME280;12992;50.884;13.668;2023-03-04T08:16:28;97551.22;;;1.18;100.00
24962;BME280;12992;50.884;13.668;2023-03-04T08:18:56;97563.09;;;1.30;100.00
24962;BME280;12992;50.884;13.668;2023-03-04T08:21:23;97563.59;;;1.40;100.00
24962;BME280;12992;50.884;13.668;2023-03-04T08:23:49;97567.88;;;1.56;100.00
24962;BME280;12992;50.884;13.668;2023-03-04T08:26:26;97557.41;;;1.61;100.00
24962;BME280;12992;50.884;13.668;2023-03-04T08:28:53;97559.91;;;1.63;100.00
24962;BME280;12992;50.884;13.668;2023-03-04T08:31:19;97553.91;;;1.61;100.00
24962;BME280;12992;50.884;13.668;2023-03-04T08:33:45;97547.31;;;1.63;100.00
24962;BME280;12992;50.884;13.668;2023-03-04T08:36:11;97566.03;;;1.78;100.00
24962;BME280;12992;50.884;13.668;2023-03-04T08:38:37;97558.13;;;1.98;100.00
24962;BME280;12992;50.884;13.668;2023-03-04T08:41:03;97572.63;;;2.04;100.00
24962;BME280;12992;50.884;13.668;2023-03-04T08:43:29;97570.91;;;2.24;100.00
24962;BME280;12992;50.884;13.668;2023-03-04T08:45:55;97568.94;;;2.39;100.00
24962;BME280;12992;50.884;13.668;2023-03-04T08:48:21;97545.31;;;2.35;100.00
24962;BME280;12992;50.884;13.668;2023-03-04T08:50:47;97551.53;;;2.35;100.00
24962;BME280;12992;50.884;13.668;2023-03-04T08:53:13;97529.75;;;2.23;100.00
24962;BME280;12992;50.884;13.668;2023-03-04T08:55:40;97548.44;;;2.38;100.00
24962;BME280;12992;50.884;13.668;2023-03-04T08:58:06;97557.00;;;2.55;100.00
24962;BME280;12992;50.884;13.668;2023-03-04T09:00:33;97538.81;;;2.50;100.00
24962;BME280;12992;50.884;13.668;2023-03-04T09:02:58;97523.03;;;2.41;100.00
24962;BME280;12992;50.884;13.668;2023-03-04T09:05:24;97553.56;;;2.68;100.00
24962;BME280;12992;50.884;13.668;2023-03-04T09:07:49;97558.38;;;2.79;100.00
24962;BME280;12992;50.884;13.668;2023-03-04T09:10:14;97553.84;;;2.86;100.00
24962;BME280;12992;50.884;13.668;2023-03-04T09:12:40;97518.66;;;2.74;100.00
24962;BME280;12992;50.884;13.668;2023-03-04T09:15:06;97525.84;;;2.74;100.00
24962;BME280;12992;50.884;13.668;2023-03-04T09:17:31;97543.09;;;2.86;100.00
24962;BME280;12992;50.884;13.668;2023-03-04T09:19:57;97529.03;;;2.91;100.00
24962;BME280;12992;50.884;13.668;2023-03-04T09:22:22;97544.16;;;2.98;100.00
24962;BME280;12992;50.884;13.668;2023-03-04T09:24:47;97546.88;;;3.05;100.00
24962;BME280;12992;50.884;13.668;2023-03-04T09:27:13;97504.81;;;2.84;100.00
24962;BME280;12992;50.884;13.668;2023-03-04T09:29:38;97506.66;;;2.77;100.00
24962;BME280;12992;50.884;13.668;2023-03-04T09:32:03;97496.88;;;2.69;100.00
24962;BME280;12992;50.884;13.668;2023-03-04T09:34:29;97517.00;;;2.80;100.00
24962;BME280;12992;50.884;13.668;2023-03-04T09:36:54;97518.44;;;2.82;100.00
24962;BME280;12992;50.884;13.668;2023-03-04T09:39:19;97511.56;;;2.73;100.00
24962;BME280;12992;50.884;13.668;2023-03-04T09:41:48;97526.34;;;2.84;100.00
24962;BME280;12992;50.884;13.668;2023-03-04T09:44:28;97532.97;;;2.95;100.00
24962;BME280;12992;50.884;13.668;2023-03-04T09:46:56;97536.31;;;3.03;100.00
24962;BME280;12992;50.884;13.668;2023-03-04T09:49:23;97539.22;;;3.08;100.00
24962;BME280;12992;50.884;13.668;2023-03-04T09:52:48;97529.72;;;3.12;100.00
24962;BME280;12992;50.884;13.668;2023-03-04T09:57:56;97502.59;;;3.07;100.00
24962;BME280;12992;50.884;13.668;2023-03-04T10:00:38;97473.97;;;2.87;100.00
24962;BME280;12992;50.884;13.668;2023-03-04T10:03:24;97495.91;;;2.90;100.00
24962;BME280;12992;50.884;13.668;2023-03-04T10:06:01;97497.63;;;3.04;100.00
24962;BME280;12992;50.884;13.668;2023-03-04T10:08:51;97496.38;;;3.13;100.00
24962;BME280;12992;50.884;13.668;2023-03-04T10:11:43;97503.63;;;3.13;100.00
24962;BME280;12992;50.884;13.668;2023-03-04T10:16:58;97519.19;;;3.31;100.00
24962;BME280;12992;50.884;13.668;2023-03-04T10:19:34;97493.94;;;3.19;100.00
24962;BME280;12992;50.884;13.668;2023-03-04T10:22:24;97493.50;;;3.22;100.00
24962;BME280;12992;50.884;13.668;2023-03-04T10:24:55;97522.13;;;3.49;100.00
24962;BME280;12992;50.884;13.668;2023-03-04T10:27:21;97513.22;;;3.55;100.00
24962;BME280;12992;50.884;13.668;2023-03-04T10:29:48;97480.69;;;3.37;100.00
24962;BME280;12992;50.884;13.668;2023-03-04T10:32:16;97471.97;;;3.22;100.00
24962;BME280;12992;50.884;13.668;2023-03-04T10:34:43;97465.56;;;3.23;100.00
24962;BME280;12992;50.884;13.668;2023-03-04T10:37:08;97456.44;;;3.10;100.00
24962;BME280;12992;50.884;13.668;2023-03-04T10:39:44;97450.00;;;2.98;100.00
24962;BME280;12992;50.884;13.668;2023-03-04T10:44:42;97442.53;;;3.00;100.00
24962;BME280;12992;50.884;13.668;2023-03-04T10:47:09;97455.19;;;2.93;100.00
24962;BME280;12992;50.884;13.668;2023-03-04T10:49:52;97460.13;;;2.96;100.00
24962;BME280;12992;50.884;13.668;2023-03-04T10:54:55;97445.81;;;2.82;100.00
24962;BME280;12992;50.884;13.668;2023-03-04T10:59:57;97456.22;;;2.92;100.00
24962;BME280;12992;50.884;13.668;2023-03-04T11:02:25;97448.72;;;2.81;100.00
24962;BME280;12992;50.884;13.668;2023-03-04T11:05:03;97458.47;;;2.89;100.00
24962;BME280;12992;50.884;13.668;2023-03-04T11:07:29;97471.09;;;2.95;100.00
24962;BME280;12992;50.884;13.668;2023-03-04T11:09:54;97467.78;;;2.99;100.00
24962;BME280;12992;50.884;13.668;2023-03-04T11:12:33;97456.63;;;2.96;100.00
24962;BME280;12992;50.884;13.668;2023-03-04T11:14:58;97464.47;;;2.97;100.00
24962;BME280;12992;50.884;13.668;2023-03-04T11:17:30;97480.03;;;3.02;100.00
24962;BME280;12992;50.884;13.668;2023-03-04T11:20:21;97450.41;;;2.89;100.00
24962;BME280;12992;50.884;13.668;2023-03-04T11:22:51;97453.72;;;2.84;100.00
24962;BME280;12992;50.884;13.668;2023-03-04T11:25:41;97440.25;;;2.77;100.00
24962;BME280;12992;50.884;13.668;2023-03-04T11:30:49;97452.06;;;2.83;100.00
24962;BME280;12992;50.884;13.668;2023-03-04T11:33:23;97442.72;;;2.79;100.00
24962;BME280;12992;50.884;13.668;2023-03-04T11:35:56;97447.88;;;2.74;100.00
24962;BME280;12992;50.884;13.668;2023-03-04T11:38:28;97437.75;;;2.76;100.00
24962;BME280;12992;50.884;13.668;2023-03-04T11:40:59;97459.72;;;2.86;100.00
24962;BME280;12992;50.884;13.668;2023-03-04T11:43:37;97461.16;;;2.89;100.00
24962;BME280;12992;50.884;13.668;2023-03-04T11:46:31;97449.56;;;2.88;100.00
24962;BME280;12992;50.884;13.668;2023-03-04T11:54:16;97444.81;;;2.90;100.00
24962;BME280;12992;50.884;13.668;2023-03-04T11:56:44;97464.28;;;3.05;100.00
24962;BME280;12992;50.884;13.668;2023-03-04T11:59:39;97469.50;;;3.20;100.00
24962;BME280;12992;50.884;13.668;2023-03-04T12:04:43;97457.06;;;3.26;100.00
24962;BME280;12992;50.884;13.668;2023-03-04T12:15:49;97432.44;;;3.22;100.00
24962;BME280;12992;50.884;13.668;2023-03-04T12:18:39;97409.06;;;3.09;100.00
24962;BME280;12992;50.884;13.668;2023-03-04T12:21:18;97420.22;;;3.06;100.00
24962;BME280;12992;50.884;13.668;2023-03-04T12:24:11;97405.31;;;3.04;100.00
24962;BME280;12992;50.884;13.668;2023-03-04T12:26:54;97395.81;;;3.01;100.00
24962;BME280;12992;50.884;13.668;2023-03-04T12:32:00;97407.78;;;3.05;100.00
24962;BME280;12992;50.884;13.668;2023-03-04T12:34:32;97408.41;;;3.07;100.00
24962;BME280;12992;50.884;13.668;2023-03-04T12:40:26;97425.59;;;3.26;100.00
24962;BME280;12992;50.884;13.668;2023-03-04T12:42:37;97417.75;;;3.31;100.00
24962;BME280;12992;50.884;13.668;2023-03-04T12:45:14;97398.91;;;3.25;100.00
24962;BME280;12992;50.884;13.668;2023-03-04T12:51:08;97411.53;;;3.37;100.00
24962;BME280;12992;50.884;13.668;2023-03-04T12:53:51;97399.94;;;3.37;100.00
24962;BME280;12992;50.884;13.668;2023-03-04T12:56:25;97403.84;;;3.41;100.00
24962;BME280;12992;50.884;13.668;2023-03-04T12:58:52;97387.72;;;3.34;100.00
24962;BME280;12992;50.884;13.668;2023-03-04T13:01:31;97379.84;;;3.33;100.00
24962;BME280;12992;50.884;13.668;2023-03-04T13:04:09;97375.09;;;3.28;100.00
24962;BME280;12992;50.884;13.668;2023-03-04T13:07:16;97364.53;;;3.27;100.00
24962;BME280;12992;50.884;13.668;2023-03-04T13:09:57;97374.69;;;3.31;100.00
24962;BME280;12992;50.884;13.668;2023-03-04T13:12:25;97366.59;;;3.31;100.00
24962;BME280;12992;50.884;13.668;2023-03-04T13:17:45;97358.91;;;3.35;100.00
24962;BME280;12992;50.884;13.668;2023-03-04T13:22:51;97354.41;;;3.29;100.00
24962;BME280;12992;50.884;13.668;2023-03-04T13:25:30;97353.13;;;3.25;100.00
24962;BME280;12992;50.884;13.668;2023-03-04T13:43:42;97349.84;;;3.36;100.00
24962;BME280;12992;50.884;13.668;2023-03-04T13:48:42;97367.44;;;3.45;100.00
24962;BME280;12992;50.884;13.668;2023-03-04T13:51:25;97377.94;;;3.53;100.00
24962;BME280;12992;50.884;13.668;2023-03-04T13:56:42;97352.28;;;3.44;100.00
24962;BME280;12992;50.884;13.668;2023-03-04T13:59:20;97348.97;;;3.49;100.00